National Weather Service United States Department of Commerce
Click Here for Latest Airport Weather Warnings
 
Latest Huntsville TAF


027
FTUS44 KHUN 121720
TAFHSV
TAF
KHSV 121720Z 1218/1318 VRB04KT P6SM VCTS SCT045CB
FM122100 29005KT P6SM VCTS BKN050CB OVC250
FM130100 VRB02KT P6SM FEW050 SCT250
FM131000 00000KT 5SM BR FEW040
TEMPO 1310/1312 3/4SM BR
FM131300 16004KT P6SM FEW040=

Latest Muscle Shoals TAF


000
FTUS44 KHUN 121720
TAFMSL
TAF
KMSL 121720Z 1218/1318 VRB04KT P6SM VCSH SCT045
FM122000 29005KT P6SM VCTS BKN050CB OVC250
FM130100 VRB02KT P6SM FEW050 SCT250
FM131000 00000KT 3SM BR FEW040
TEMPO 1310/1312 3/4SM BR
FM131300 18004KT P6SM FEW040=


Back to Main Huntsville Weather Forecast Office Page